sensor_id;sensor_type;location;lat;lon;timestamp;P1;durP1;ratioP1;P2;durP2;ratioP2
76848;SDS011;65814;51.134;16.980;2023-11-22T00:02:08;33.20;;;17.90;;
76848;SDS011;65814;51.134;16.980;2023-11-22T00:04:36;27.70;;;18.20;;
76848;SDS011;65814;51.134;16.980;2023-11-22T00:07:04;29.40;;;18.20;;
76848;SDS011;65814;51.134;16.980;2023-11-22T00:09:32;30.90;;;17.60;;
76848;SDS011;65814;51.134;16.980;2023-11-22T00:12:00;27.60;;;18.20;;
76848;SDS011;65814;51.134;16.980;2023-11-22T00:14:28;28.90;;;17.80;;
76848;SDS011;65814;51.134;16.980;2023-11-22T00:16:56;27.50;;;17.20;;
76848;SDS011;65814;51.134;16.980;2023-11-22T00:19:25;31.30;;;18.20;;
76848;SDS011;65814;51.134;16.980;2023-11-22T00:21:53;30.60;;;18.80;;
76848;SDS011;65814;51.134;16.980;2023-11-22T00:24:21;27.20;;;18.40;;
76848;SDS011;65814;51.134;16.980;2023-11-22T00:26:49;32.40;;;20.20;;
76848;SDS011;65814;51.134;16.980;2023-11-22T00:29:17;30.50;;;18.70;;
76848;SDS011;65814;51.134;16.980;2023-11-22T00:31:46;27.50;;;16.30;;
76848;SDS011;65814;51.134;16.980;2023-11-22T00:34:16;28.50;;;17.30;;
76848;SDS011;65814;51.134;16.980;2023-11-22T00:36:48;29.40;;;17.40;;
76848;SDS011;65814;51.134;16.980;2023-11-22T00:39:16;28.10;;;17.70;;
76848;SDS011;65814;51.134;16.980;2023-11-22T00:41:44;29.50;;;18.20;;
76848;SDS011;65814;51.134;16.980;2023-11-22T00:44:13;31.90;;;18.40;;
76848;SDS011;65814;51.134;16.980;2023-11-22T00:46:41;25.20;;;17.10;;
76848;SDS011;65814;51.134;16.980;2023-11-22T00:49:09;27.70;;;17.60;;
76848;SDS011;65814;51.134;16.980;2023-11-22T00:51:38;25.40;;;16.40;;
76848;SDS011;65814;51.134;16.980;2023-11-22T00:54:06;26.40;;;16.30;;
76848;SDS011;65814;51.134;16.980;2023-11-22T00:56:34;24.70;;;16.10;;
76848;SDS011;65814;51.134;16.980;2023-11-22T00:59:03;27.30;;;17.90;;
76848;SDS011;65814;51.134;16.980;2023-11-22T01:01:31;28.30;;;17.70;;
76848;SDS011;65814;51.134;16.980;2023-11-22T01:04:00;26.70;;;15.90;;
76848;SDS011;65814;51.134;16.980;2023-11-22T01:06:28;24.40;;;16.20;;
76848;SDS011;65814;51.134;16.980;2023-11-22T01:08:56;26.40;;;15.80;;
76848;SDS011;65814;51.134;16.980;2023-11-22T01:11:27;29.40;;;17.30;;
76848;SDS011;65814;51.134;16.980;2023-11-22T01:13:58;26.20;;;16.30;;
76848;SDS011;65814;51.134;16.980;2023-11-22T01:16:27;27.60;;;17.00;;
76848;SDS011;65814;51.134;16.980;2023-11-22T01:18:55;25.40;;;17.80;;
76848;SDS011;65814;51.134;16.980;2023-11-22T01:21:23;25.00;;;15.90;;
76848;SDS011;65814;51.134;16.980;2023-11-22T01:23:53;31.80;;;17.40;;
76848;SDS011;65814;51.134;16.980;2023-11-22T01:26:21;25.70;;;16.90;;
76848;SDS011;65814;51.134;16.980;2023-11-22T01:28:49;30.60;;;17.00;;
76848;SDS011;65814;51.134;16.980;2023-11-22T01:31:17;27.80;;;17.10;;
76848;SDS011;65814;51.134;16.980;2023-11-22T01:33:48;28.10;;;17.30;;
76848;SDS011;65814;51.134;16.980;2023-11-22T01:36:17;25.70;;;16.10;;
76848;SDS011;65814;51.134;16.980;2023-11-22T01:38:45;28.50;;;17.20;;
76848;SDS011;65814;51.134;16.980;2023-11-22T01:41:14;31.10;;;19.80;;
76848;SDS011;65814;51.134;16.980;2023-11-22T01:43:42;27.20;;;16.50;;
76848;SDS011;65814;51.134;16.980;2023-11-22T01:46:10;25.70;;;16.90;;
76848;SDS011;65814;51.134;16.980;2023-11-22T01:48:54;30.20;;;17.90;;
76848;SDS011;65814;51.134;16.980;2023-11-22T01:51:22;25.40;;;16.80;;
76848;SDS011;65814;51.134;16.980;2023-11-22T01:53:53;29.10;;;16.10;;
76848;SDS011;65814;51.134;16.980;2023-11-22T01:56:22;28.10;;;14.80;;
76848;SDS011;65814;51.134;16.980;2023-11-22T01:58:51;24.10;;;15.20;;
76848;SDS011;65814;51.134;16.980;2023-11-22T02:01:22;23.50;;;14.40;;
76848;SDS011;65814;51.134;16.980;2023-11-22T02:03:50;24.50;;;14.30;;
76848;SDS011;65814;51.134;16.980;2023-11-22T02:06:20;22.60;;;14.90;;
76848;SDS011;65814;51.134;16.980;2023-11-22T02:08:49;22.10;;;16.00;;
76848;SDS011;65814;51.134;16.980;2023-11-22T02:11:18;25.40;;;15.60;;
76848;SDS011;65814;51.134;16.980;2023-11-22T02:13:50;22.90;;;14.00;;
76848;SDS011;65814;51.134;16.980;2023-11-22T02:16:18;25.30;;;15.00;;
76848;SDS011;65814;51.134;16.980;2023-11-22T02:18:48;23.00;;;14.00;;
76848;SDS011;65814;51.134;16.980;2023-11-22T02:21:17;25.50;;;14.10;;
76848;SDS011;65814;51.134;16.980;2023-11-22T02:23:45;26.10;;;16.00;;
76848;SDS011;65814;51.134;16.980;2023-11-22T02:26:14;25.00;;;16.20;;
76848;SDS011;65814;51.134;16.980;2023-11-22T02:28:46;23.50;;;15.00;;
76848;SDS011;65814;51.134;16.980;2023-11-22T02:31:16;23.70;;;14.90;;
76848;SDS011;65814;51.134;16.980;2023-11-22T02:33:44;21.80;;;13.60;;
76848;SDS011;65814;51.134;16.980;2023-11-22T02:36:12;23.10;;;14.40;;
76848;SDS011;65814;51.134;16.980;2023-11-22T02:38:40;22.20;;;14.50;;
76848;SDS011;65814;51.134;16.980;2023-11-22T02:41:09;27.60;;;15.70;;
76848;SDS011;65814;51.134;16.980;2023-11-22T02:43:37;26.90;;;16.30;;
76848;SDS011;65814;51.134;16.980;2023-11-22T02:46:06;25.90;;;15.80;;
76848;SDS011;65814;51.134;16.980;2023-11-22T02:48:34;23.40;;;14.90;;
76848;SDS011;65814;51.134;16.980;2023-11-22T02:51:02;26.70;;;14.70;;
76848;SDS011;65814;51.134;16.980;2023-11-22T02:53:30;22.30;;;13.90;;
76848;SDS011;65814;51.134;16.980;2023-11-22T02:56:00;22.20;;;13.80;;
76848;SDS011;65814;51.134;16.980;2023-11-22T02:58:29;22.60;;;14.60;;
76848;SDS011;65814;51.134;16.980;2023-11-22T03:01:00;25.60;;;14.80;;
76848;SDS011;65814;51.134;16.980;2023-11-22T03:03:28;23.20;;;15.00;;
76848;SDS011;65814;51.134;16.980;2023-11-22T03:05:56;18.20;;;12.60;;
76848;SDS011;65814;51.134;16.980;2023-11-22T03:08:24;21.30;;;13.20;;
76848;SDS011;65814;51.134;16.980;2023-11-22T03:10:53;24.60;;;14.90;;
76848;SDS011;65814;51.134;16.980;2023-11-22T03:13:23;23.70;;;14.40;;
76848;SDS011;65814;51.134;16.980;2023-11-22T03:15:53;22.90;;;14.60;;
76848;SDS011;65814;51.134;16.980;2023-11-22T03:18:21;25.50;;;15.30;;
76848;SDS011;65814;51.134;16.980;2023-11-22T03:20:49;23.60;;;14.90;;
76848;SDS011;65814;51.134;16.980;2023-11-22T03:23:22;24.80;;;16.00;;
76848;SDS011;65814;51.134;16.980;2023-11-22T03:25:50;26.10;;;16.10;;
76848;SDS011;65814;51.134;16.980;2023-11-22T03:28:18;32.60;;;17.90;;
76848;SDS011;65814;51.134;16.980;2023-11-22T03:30:47;31.70;;;18.70;;
76848;SDS011;65814;51.134;16.980;2023-11-22T03:33:15;27.70;;;17.70;;
76848;SDS011;65814;51.134;16.980;2023-11-22T03:35:43;28.10;;;16.60;;
76848;SDS011;65814;51.134;16.980;2023-11-22T03:38:11;25.40;;;17.10;;
76848;SDS011;65814;51.134;16.980;2023-11-22T03:40:40;33.40;;;18.50;;
76848;SDS011;65814;51.134;16.980;2023-11-22T03:43:08;27.40;;;17.10;;
76848;SDS011;65814;51.134;16.980;2023-11-22T03:45:38;28.00;;;18.60;;
76848;SDS011;65814;51.134;16.980;2023-11-22T03:48:06;40.30;;;21.60;;
76848;SDS011;65814;51.134;16.980;2023-11-22T03:50:34;35.50;;;19.70;;
76848;SDS011;65814;51.134;16.980;2023-11-22T03:53:05;34.50;;;22.20;;
76848;SDS011;65814;51.134;16.980;2023-11-22T03:55:33;27.10;;;17.90;;
76848;SDS011;65814;51.134;16.980;2023-11-22T03:58:01;36.40;;;20.30;;
76848;SDS011;65814;51.134;16.980;2023-11-22T04:00:30;34.40;;;19.70;;
76848;SDS011;65814;51.134;16.980;2023-11-22T04:03:00;30.00;;;20.00;;
76848;SDS011;65814;51.134;16.980;2023-11-22T04:05:29;45.20;;;21.60;;
76848;SDS011;65814;51.134;16.980;2023-11-22T04:07:57;71.20;;;28.30;;
76848;SDS011;65814;51.134;16.980;2023-11-22T04:10:26;91.50;;;34.90;;
76848;SDS011;65814;51.134;16.980;2023-11-22T04:12:54;39.20;;;20.30;;
76848;SDS011;65814;51.134;16.980;2023-11-22T04:15:22;71.70;;;31.30;;
76848;SDS011;65814;51.134;16.980;2023-11-22T04:17:51;66.80;;;28.00;;
76848;SDS011;65814;51.134;16.980;2023-11-22T04:20:22;59.00;;;28.10;;
76848;SDS011;65814;51.134;16.980;2023-11-22T04:22:50;48.00;;;23.50;;
76848;SDS011;65814;51.134;16.980;2023-11-22T04:25:18;30.50;;;17.30;;
76848;SDS011;65814;51.134;16.980;2023-11-22T04:27:46;25.70;;;15.10;;
76848;SDS011;65814;51.134;16.980;2023-11-22T04:30:15;35.30;;;19.20;;
76848;SDS011;65814;51.134;16.980;2023-11-22T04:32:45;47.90;;;21.50;;
76848;SDS011;65814;51.134;16.980;2023-11-22T04:35:14;31.70;;;16.80;;
76848;SDS011;65814;51.134;16.980;2023-11-22T04:37:42;22.50;;;13.30;;
76848;SDS011;65814;51.134;16.980;2023-11-22T04:40:11;22.20;;;13.30;;
76848;SDS011;65814;51.134;16.980;2023-11-22T04:42:39;31.50;;;17.60;;
76848;SDS011;65814;51.134;16.980;2023-11-22T04:45:07;67.90;;;30.10;;
76848;SDS011;65814;51.134;16.980;2023-11-22T04:47:37;43.00;;;20.60;;
76848;SDS011;65814;51.134;16.980;2023-11-22T04:50:06;23.90;;;13.70;;
76848;SDS011;65814;51.134;16.980;2023-11-22T04:52:34;18.20;;;12.20;;
76848;SDS011;65814;51.134;16.980;2023-11-22T04:55:03;23.40;;;15.60;;
76848;SDS011;65814;51.134;16.980;2023-11-22T04:57:32;25.30;;;14.70;;
76848;SDS011;65814;51.134;16.980;2023-11-22T05:00:01;18.70;;;12.00;;
76848;SDS011;65814;51.134;16.980;2023-11-22T05:02:31;17.60;;;11.30;;
76848;SDS011;65814;51.134;16.980;2023-11-22T05:04:59;16.10;;;11.60;;
76848;SDS011;65814;51.134;16.980;2023-11-22T05:07:27;19.40;;;13.60;;
76848;SDS011;65814;51.134;16.980;2023-11-22T05:09:57;19.80;;;12.90;;
76848;SDS011;65814;51.134;16.980;2023-11-22T05:12:25;19.60;;;13.40;;
76848;SDS011;65814;51.134;16.980;2023-11-22T05:14:53;21.40;;;12.70;;
76848;SDS011;65814;51.134;16.980;2023-11-22T05:17:21;19.30;;;12.10;;
76848;SDS011;65814;51.134;16.980;2023-11-22T05:19:49;24.20;;;15.00;;
76848;SDS011;65814;51.134;16.980;2023-11-22T05:22:18;27.00;;;15.10;;
76848;SDS011;65814;51.134;16.980;2023-11-22T05:24:47;20.30;;;13.50;;
76848;SDS011;65814;51.134;16.980;2023-11-22T05:27:17;31.00;;;16.70;;
76848;SDS011;65814;51.134;16.980;2023-11-22T05:29:45;21.20;;;15.10;;
76848;SDS011;65814;51.134;16.980;2023-11-22T05:32:21;16.90;;;11.10;;
76848;SDS011;65814;51.134;16.980;2023-11-22T05:34:50;18.70;;;11.60;;
76848;SDS011;65814;51.134;16.980;2023-11-22T05:37:18;24.40;;;15.80;;
76848;SDS011;65814;51.134;16.980;2023-11-22T05:39:48;17.80;;;11.70;;
76848;SDS011;65814;51.134;16.980;2023-11-22T05:42:16;16.70;;;10.60;;
76848;SDS011;65814;51.134;16.980;2023-11-22T05:44:45;19.60;;;10.20;;
76848;SDS011;65814;51.134;16.980;2023-11-22T05:47:14;15.20;;;9.80;;
76848;SDS011;65814;51.134;16.980;2023-11-22T05:49:42;14.30;;;8.70;;
76848;SDS011;65814;51.134;16.980;2023-11-22T05:52:10;16.10;;;9.50;;
76848;SDS011;65814;51.134;16.980;2023-11-22T05:54:38;13.60;;;9.10;;
76848;SDS011;65814;51.134;16.980;2023-11-22T05:57:06;13.00;;;8.80;;
76848;SDS011;65814;51.134;16.980;2023-11-22T05:59:34;14.90;;;8.50;;
76848;SDS011;65814;51.134;16.980;2023-11-22T06:02:03;12.60;;;7.90;;
76848;SDS011;65814;51.134;16.980;2023-11-22T06:04:31;13.10;;;8.60;;
76848;SDS011;65814;51.134;16.980;2023-11-22T06:07:00;12.10;;;8.00;;
76848;SDS011;65814;51.134;16.980;2023-11-22T06:09:28;16.00;;;9.60;;
76848;SDS011;65814;51.134;16.980;2023-11-22T06:11:56;14.40;;;9.30;;
76848;SDS011;65814;51.134;16.980;2023-11-22T06:14:24;13.90;;;7.90;;
76848;SDS011;65814;51.134;16.980;2023-11-22T06:16:52;11.00;;;7.60;;
76848;SDS011;65814;51.134;16.980;2023-11-22T06:19:20;15.70;;;8.60;;
76848;SDS011;65814;51.134;16.980;2023-11-22T06:21:48;14.00;;;8.80;;
76848;SDS011;65814;51.134;16.980;2023-11-22T06:24:16;13.50;;;7.70;;
76848;SDS011;65814;51.134;16.980;2023-11-22T06:26:44;14.60;;;9.10;;
76848;SDS011;65814;51.134;16.980;2023-11-22T06:29:15;14.70;;;9.00;;
76848;SDS011;65814;51.134;16.980;2023-11-22T06:31:43;14.00;;;7.70;;
76848;SDS011;65814;51.134;16.980;2023-11-22T06:34:12;12.70;;;8.50;;
76848;SDS011;65814;51.134;16.980;2023-11-22T06:36:40;16.20;;;8.60;;
76848;SDS011;65814;51.134;16.980;2023-11-22T06:39:08;11.80;;;8.40;;
76848;SDS011;65814;51.134;16.980;2023-11-22T06:41:37;16.00;;;8.50;;
76848;SDS011;65814;51.134;16.980;2023-11-22T06:44:05;13.90;;;8.40;;
76848;SDS011;65814;51.134;16.980;2023-11-22T06:46:33;12.30;;;8.10;;
76848;SDS011;65814;51.134;16.980;2023-11-22T06:49:02;14.90;;;8.30;;
76848;SDS011;65814;51.134;16.980;2023-11-22T06:51:30;11.50;;;6.60;;
76848;SDS011;65814;51.134;16.980;2023-11-22T06:53:59;15.40;;;8.50;;
76848;SDS011;65814;51.134;16.980;2023-11-22T06:56:29;11.70;;;7.70;;
76848;SDS011;65814;51.134;16.980;2023-11-22T06:58:57;15.30;;;8.50;;
76848;SDS011;65814;51.134;16.980;2023-11-22T07:01:25;11.70;;;7.40;;
76848;SDS011;65814;51.134;16.980;2023-11-22T07:03:54;13.30;;;8.00;;
76848;SDS011;65814;51.134;16.980;2023-11-22T07:06:22;14.10;;;8.20;;
76848;SDS011;65814;51.134;16.980;2023-11-22T07:08:50;13.30;;;7.90;;
76848;SDS011;65814;51.134;16.980;2023-11-22T07:11:22;12.80;;;7.60;;
76848;SDS011;65814;51.134;16.980;2023-11-22T07:13:51;13.60;;;7.30;;
76848;SDS011;65814;51.134;16.980;2023-11-22T07:16:19;12.10;;;7.90;;
76848;SDS011;65814;51.134;16.980;2023-11-22T07:18:48;12.80;;;7.60;;
76848;SDS011;65814;51.134;16.980;2023-11-22T07:21:16;13.40;;;7.60;;
76848;SDS011;65814;51.134;16.980;2023-11-22T07:23:45;13.70;;;7.70;;
76848;SDS011;65814;51.134;16.980;2023-11-22T07:26:15;10.60;;;6.70;;
76848;SDS011;65814;51.134;16.980;2023-11-22T07:28:44;14.00;;;7.60;;
76848;SDS011;65814;51.134;16.980;2023-11-22T07:31:12;11.70;;;8.30;;
76848;SDS011;65814;51.134;16.980;2023-11-22T07:33:41;16.30;;;8.20;;
76848;SDS011;65814;51.134;16.980;2023-11-22T07:36:10;14.40;;;7.90;;
76848;SDS011;65814;51.134;16.980;2023-11-22T07:38:42;13.10;;;7.90;;
76848;SDS011;65814;51.134;16.980;2023-11-22T07:41:10;18.30;;;8.70;;
76848;SDS011;65814;51.134;16.980;2023-11-22T07:43:38;15.20;;;7.80;;
76848;SDS011;65814;51.134;16.980;2023-11-22T07:46:07;16.10;;;8.60;;
76848;SDS011;65814;51.134;16.980;2023-11-22T07:48:41;14.20;;;8.00;;
76848;SDS011;65814;51.134;16.980;2023-11-22T07:51:09;15.80;;;7.70;;
76848;SDS011;65814;51.134;16.980;2023-11-22T07:53:41;15.50;;;7.60;;
76848;SDS011;65814;51.134;16.980;2023-11-22T07:56:09;14.10;;;8.70;;
76848;SDS011;65814;51.134;16.980;2023-11-22T07:58:41;13.50;;;8.50;;
76848;SDS011;65814;51.134;16.980;2023-11-22T08:01:08;12.10;;;8.10;;
76848;SDS011;65814;51.134;16.980;2023-11-22T08:03:42;14.50;;;8.20;;
76848;SDS011;65814;51.134;16.980;2023-11-22T08:09:05;14.00;;;9.30;;
76848;SDS011;65814;51.134;16.980;2023-11-22T08:11:36;18.10;;;12.10;;
76848;SDS011;65814;51.134;16.980;2023-11-22T08:14:04;15.00;;;9.20;;
76848;SDS011;65814;51.134;16.980;2023-11-22T08:16:33;18.80;;;10.80;;
76848;SDS011;65814;51.134;16.980;2023-11-22T08:19:06;16.20;;;9.60;;
76848;SDS011;65814;51.134;16.980;2023-11-22T08:21:36;15.70;;;9.80;;
76848;SDS011;65814;51.134;16.980;2023-11-22T08:24:04;17.90;;;11.40;;
76848;SDS011;65814;51.134;16.980;2023-11-22T08:26:32;15.90;;;10.00;;
76848;SDS011;65814;51.134;16.980;2023-11-22T08:29:01;14.60;;;9.50;;
76848;SDS011;65814;51.134;16.980;2023-11-22T08:31:30;16.30;;;10.60;;
76848;SDS011;65814;51.134;16.980;2023-11-22T08:33:58;13.70;;;9.20;;
76848;SDS011;65814;51.134;16.980;2023-11-22T08:36:26;15.70;;;10.30;;
76848;SDS011;65814;51.134;16.980;2023-11-22T08:38:56;15.20;;;9.60;;
76848;SDS011;65814;51.134;16.980;2023-11-22T08:41:27;13.60;;;9.00;;
76848;SDS011;65814;51.134;16.980;2023-11-22T08:43:57;16.90;;;10.40;;
76848;SDS011;65814;51.134;16.980;2023-11-22T08:46:26;14.40;;;10.00;;
76848;SDS011;65814;51.134;16.980;2023-11-22T08:48:55;20.10;;;12.00;;
76848;SDS011;65814;51.134;16.980;2023-11-22T08:51:24;18.50;;;11.10;;
76848;SDS011;65814;51.134;16.980;2023-11-22T08:53:52;15.70;;;10.30;;
76848;SDS011;65814;51.134;16.980;2023-11-22T08:56:21;16.80;;;10.70;;
76848;SDS011;65814;51.134;16.980;2023-11-22T08:58:50;17.60;;;10.90;;
76848;SDS011;65814;51.134;16.980;2023-11-22T09:01:18;17.60;;;10.90;;
76848;SDS011;65814;51.134;16.980;2023-11-22T09:03:47;17.20;;;11.20;;
76848;SDS011;65814;51.134;16.980;2023-11-22T09:06:15;13.80;;;11.00;;
76848;SDS011;65814;51.134;16.980;2023-11-22T09:08:44;17.70;;;10.20;;
76848;SDS011;65814;51.134;16.980;2023-11-22T09:11:14;19.10;;;10.50;;
76848;SDS011;65814;51.134;16.980;2023-11-22T09:13:44;21.00;;;11.00;;
76848;SDS011;65814;51.134;16.980;2023-11-22T09:16:12;16.30;;;10.70;;
76848;SDS011;65814;51.134;16.980;2023-11-22T09:18:41;16.70;;;10.30;;
76848;SDS011;65814;51.134;16.980;2023-11-22T09:21:09;16.50;;;9.50;;
76848;SDS011;65814;51.134;16.980;2023-11-22T09:23:37;17.90;;;10.30;;
76848;SDS011;65814;51.134;16.980;2023-11-22T09:26:06;18.60;;;10.40;;
76848;SDS011;65814;51.134;16.980;2023-11-22T09:28:35;16.00;;;9.40;;
76848;SDS011;65814;51.134;16.980;2023-11-22T09:31:04;17.20;;;10.50;;
76848;SDS011;65814;51.134;16.980;2023-11-22T09:33:35;22.50;;;11.40;;
76848;SDS011;65814;51.134;16.980;2023-11-22T09:36:07;19.70;;;11.30;;
76848;SDS011;65814;51.134;16.980;2023-11-22T09:38:38;18.40;;;11.60;;
76848;SDS011;65814;51.134;16.980;2023-11-22T09:41:06;18.80;;;10.80;;
76848;SDS011;65814;51.134;16.980;2023-11-22T09:43:37;15.90;;;10.10;;
76848;SDS011;65814;51.134;16.980;2023-11-22T09:46:08;17.50;;;9.80;;
76848;SDS011;65814;51.134;16.980;2023-11-22T09:48:40;16.30;;;9.80;;
76848;SDS011;65814;51.134;16.980;2023-11-22T09:51:15;14.50;;;8.50;;
76848;SDS011;65814;51.134;16.980;2023-11-22T09:53:59;15.20;;;9.10;;
76848;SDS011;65814;51.134;16.980;2023-11-22T09:56:33;17.60;;;9.90;;
76848;SDS011;65814;51.134;16.980;2023-11-22T09:59:03;15.30;;;10.80;;
76848;SDS011;65814;51.134;16.980;2023-11-22T10:01:32;15.50;;;9.40;;
76848;SDS011;65814;51.134;16.980;2023-11-22T10:04:04;16.50;;;10.30;;
76848;SDS011;65814;51.134;16.980;2023-11-22T10:06:36;16.90;;;10.30;;
76848;SDS011;65814;51.134;16.980;2023-11-22T10:09:06;18.50;;;10.80;;
76848;SDS011;65814;51.134;16.980;2023-11-22T10:11:37;16.80;;;10.90;;
76848;SDS011;65814;51.134;16.980;2023-11-22T10:14:08;15.80;;;9.40;;
76848;SDS011;65814;51.134;16.980;2023-11-22T10:16:36;14.90;;;9.70;;
76848;SDS011;65814;51.134;16.980;2023-11-22T10:19:05;17.30;;;9.70;;
76848;SDS011;65814;51.134;16.980;2023-11-22T10:21:34;15.90;;;10.90;;
76848;SDS011;65814;51.134;16.980;2023-11-22T10:24:03;14.90;;;9.70;;
76848;SDS011;65814;51.134;16.980;2023-11-22T10:26:32;16.80;;;10.30;;
76848;SDS011;65814;51.134;16.980;2023-11-22T10:29:01;16.70;;;9.60;;
76848;SDS011;65814;51.134;16.980;2023-11-22T10:31:30;17.20;;;10.50;;
76848;SDS011;65814;51.134;16.980;2023-11-22T10:34:00;17.40;;;9.80;;
76848;SDS011;65814;51.134;16.980;2023-11-22T10:36:31;16.30;;;9.80;;
76848;SDS011;65814;51.134;16.980;2023-11-22T10:39:00;16.50;;;10.20;;
76848;SDS011;65814;51.134;16.980;2023-11-22T10:41:30;15.80;;;9.90;;
76848;SDS011;65814;51.134;16.980;2023-11-22T10:43:59;14.70;;;10.50;;
76848;SDS011;65814;51.134;16.980;2023-11-22T10:46:28;14.40;;;9.20;;
76848;SDS011;65814;51.134;16.980;2023-11-22T10:48:58;18.00;;;10.60;;
76848;SDS011;65814;51.134;16.980;2023-11-22T10:51:30;15.40;;;9.80;;
76848;SDS011;65814;51.134;16.980;2023-11-22T10:54:00;15.40;;;9.80;;
76848;SDS011;65814;51.134;16.980;2023-11-22T10:56:38;17.40;;;10.60;;
76848;SDS011;65814;51.134;16.980;2023-11-22T10:59:13;20.10;;;12.10;;
76848;SDS011;65814;51.134;16.980;2023-11-22T11:07:09;16.00;;;9.20;;
76848;SDS011;65814;51.134;16.980;2023-11-22T11:09:44;15.60;;;10.00;;
76848;SDS011;65814;51.134;16.980;2023-11-22T11:12:14;14.70;;;10.50;;
76848;SDS011;65814;51.134;16.980;2023-11-22T11:14:42;13.60;;;8.90;;
76848;SDS011;65814;51.134;16.980;2023-11-22T11:17:13;14.90;;;9.70;;
76848;SDS011;65814;51.134;16.980;2023-11-22T11:19:42;14.50;;;9.30;;
76848;SDS011;65814;51.134;16.980;2023-11-22T11:22:11;15.80;;;9.30;;
76848;SDS011;65814;51.134;16.980;2023-11-22T11:24:39;15.10;;;10.00;;
76848;SDS011;65814;51.134;16.980;2023-11-22T11:27:09;12.20;;;8.00;;
76848;SDS011;65814;51.134;16.980;2023-11-22T11:29:38;16.50;;;10.90;;
76848;SDS011;65814;51.134;16.980;2023-11-22T11:32:15;14.20;;;9.60;;
76848;SDS011;65814;51.134;16.980;2023-11-22T11:34:47;16.30;;;9.30;;
76848;SDS011;65814;51.134;16.980;2023-11-22T11:37:19;16.80;;;10.70;;
76848;SDS011;65814;51.134;16.980;2023-11-22T11:39:48;14.20;;;9.90;;
76848;SDS011;65814;51.134;16.980;2023-11-22T11:42:17;18.40;;;10.30;;
76848;SDS011;65814;51.134;16.980;2023-11-22T11:47:27;18.00;;;10.50;;
76848;SDS011;65814;51.134;16.980;2023-11-22T11:49:56;16.40;;;10.60;;
76848;SDS011;65814;51.134;16.980;2023-11-22T11:52:25;15.00;;;10.20;;
76848;SDS011;65814;51.134;16.980;2023-11-22T11:54:54;17.20;;;10.30;;
76848;SDS011;65814;51.134;16.980;2023-11-22T11:57:23;13.40;;;9.60;;
76848;SDS011;65814;51.134;16.980;2023-11-22T11:59:51;14.40;;;10.00;;
76848;SDS011;65814;51.134;16.980;2023-11-22T12:02:21;13.30;;;9.30;;
76848;SDS011;65814;51.134;16.980;2023-11-22T12:04:49;12.40;;;9.10;;
76848;SDS011;65814;51.134;16.980;2023-11-22T12:07:17;12.30;;;8.00;;
76848;SDS011;65814;51.134;16.980;2023-11-22T12:09:45;13.10;;;9.40;;
76848;SDS011;65814;51.134;16.980;2023-11-22T12:12:16;15.00;;;8.90;;
76848;SDS011;65814;51.134;16.980;2023-11-22T12:14:44;12.20;;;7.50;;
76848;SDS011;65814;51.134;16.980;2023-11-22T12:17:12;14.80;;;9.60;;
76848;SDS011;65814;51.134;16.980;2023-11-22T12:19:41;13.60;;;8.40;;
76848;SDS011;65814;51.134;16.980;2023-11-22T12:22:09;14.60;;;9.10;;
76848;SDS011;65814;51.134;16.980;2023-11-22T12:24:39;14.00;;;9.20;;
76848;SDS011;65814;51.134;16.980;2023-11-22T12:27:09;14.40;;;9.30;;
76848;SDS011;65814;51.134;16.980;2023-11-22T12:29:39;14.40;;;9.20;;
76848;SDS011;65814;51.134;16.980;2023-11-22T12:32:10;13.90;;;8.50;;
76848;SDS011;65814;51.134;16.980;2023-11-22T12:34:39;13.80;;;8.80;;
76848;SDS011;65814;51.134;16.980;2023-11-22T12:37:07;13.00;;;8.90;;
76848;SDS011;65814;51.134;16.980;2023-11-22T12:39:36;13.30;;;8.60;;
76848;SDS011;65814;51.134;16.980;2023-11-22T12:42:04;14.50;;;8.90;;
76848;SDS011;65814;51.134;16.980;2023-11-22T12:44:50;13.40;;;8.50;;
76848;SDS011;65814;51.134;16.980;2023-11-22T12:47:34;12.80;;;8.80;;
76848;SDS011;65814;51.134;16.980;2023-11-22T12:50:05;10.10;;;7.40;;
76848;SDS011;65814;51.134;16.980;2023-11-22T12:52:37;11.80;;;9.10;;
76848;SDS011;65814;51.134;16.980;2023-11-22T12:55:07;12.20;;;8.20;;
76848;SDS011;65814;51.134;16.980;2023-11-22T12:57:36;11.30;;;8.20;;
76848;SDS011;65814;51.134;16.980;2023-11-22T13:00:06;13.50;;;8.40;;
76848;SDS011;65814;51.134;16.980;2023-11-22T13:02:34;13.80;;;8.50;;
76848;SDS011;65814;51.134;16.980;2023-11-22T13:05:12;13.40;;;8.30;;
76848;SDS011;65814;51.134;16.980;2023-11-22T13:07:43;13.10;;;7.70;;
76848;SDS011;65814;51.134;16.980;2023-11-22T13:10:12;15.10;;;9.40;;
76848;SDS011;65814;51.134;16.980;2023-11-22T13:12:40;13.60;;;9.90;;
76848;SDS011;65814;51.134;16.980;2023-11-22T13:15:08;16.40;;;8.40;;
76848;SDS011;65814;51.134;16.980;2023-11-22T13:17:39;11.10;;;7.40;;
76848;SDS011;65814;51.134;16.980;2023-11-22T13:20:08;13.50;;;8.40;;
76848;SDS011;65814;51.134;16.980;2023-11-22T13:22:42;15.80;;;10.30;;
76848;SDS011;65814;51.134;16.980;2023-11-22T13:25:10;14.50;;;9.80;;
76848;SDS011;65814;51.134;16.980;2023-11-22T13:27:41;13.50;;;10.20;;
76848;SDS011;65814;51.134;16.980;2023-11-22T13:30:09;13.10;;;8.80;;
76848;SDS011;65814;51.134;16.980;2023-11-22T13:32:38;16.10;;;10.20;;
76848;SDS011;65814;51.134;16.980;2023-11-22T13:35:09;12.70;;;9.50;;
76848;SDS011;65814;51.134;16.980;2023-11-22T13:37:44;12.00;;;9.60;;
76848;SDS011;65814;51.134;16.980;2023-11-22T13:40:13;13.30;;;9.20;;
76848;SDS011;65814;51.134;16.980;2023-11-22T13:42:46;16.10;;;9.70;;
76848;SDS011;65814;51.134;16.980;2023-11-22T13:45:16;15.50;;;8.80;;
76848;SDS011;65814;51.134;16.980;2023-11-22T13:47:46;12.40;;;9.10;;
76848;SDS011;65814;51.134;16.980;2023-11-22T13:50:16;12.70;;;9.30;;
76848;SDS011;65814;51.134;16.980;2023-11-22T13:52:50;13.00;;;9.30;;
76848;SDS011;65814;51.134;16.980;2023-11-22T13:55:19;13.00;;;8.50;;
76848;SDS011;65814;51.134;16.980;2023-11-22T13:57:54;17.50;;;10.30;;
76848;SDS011;65814;51.134;16.980;2023-11-22T14:00:29;11.70;;;7.60;;
76848;SDS011;65814;51.134;16.980;2023-11-22T14:03:03;11.90;;;8.60;;
76848;SDS011;65814;51.134;16.980;2023-11-22T14:05:37;13.90;;;8.80;;
76848;SDS011;65814;51.134;16.980;2023-11-22T14:08:07;14.40;;;9.30;;
76848;SDS011;65814;51.134;16.980;2023-11-22T14:10:35;12.10;;;8.60;;
76848;SDS011;65814;51.134;16.980;2023-11-22T14:13:04;12.80;;;8.50;;
76848;SDS011;65814;51.134;16.980;2023-11-22T14:15:33;16.90;;;8.90;;
76848;SDS011;65814;51.134;16.980;2023-11-22T14:18:02;16.50;;;9.70;;
76848;SDS011;65814;51.134;16.980;2023-11-22T14:20:31;13.20;;;9.20;;
76848;SDS011;65814;51.134;16.980;2023-11-22T14:23:02;15.20;;;8.40;;
76848;SDS011;65814;51.134;16.980;2023-11-22T14:25:31;11.80;;;8.20;;
76848;SDS011;65814;51.134;16.980;2023-11-22T14:27:59;14.20;;;8.70;;
76848;SDS011;65814;51.134;16.980;2023-11-22T14:30:28;12.80;;;8.20;;
76848;SDS011;65814;51.134;16.980;2023-11-22T14:32:58;14.00;;;8.70;;
76848;SDS011;65814;51.134;16.980;2023-11-22T14:35:27;14.80;;;9.60;;
76848;SDS011;65814;51.134;16.980;2023-11-22T14:37:56;14.30;;;8.50;;